Time;durP1;ratioP1;P1;durP2;ratioP2;P2;SDS_P1;SDS_P2;PMS_P1;PMS_P2;Temp;Humidity;BMP_temperature;BMP_pressure;BME280_temperature;BME280_humidity;BME280_pressure;Samples;Min_cycle;Max_cycle;Signal;HPM_P1;HPM_P2
2022/01/22 00:00:00;;;;;;;3.70;1.27;;;20.50;52.10;;;;;;5033248;28;20057;-63
2022/01/22 00:02:26;;;;;;;3.97;1.30;;;20.40;52.10;;;;;;5033247;28;20053;-63
2022/01/22 00:04:51;;;;;;;5.43;1.38;;;20.50;52.20;;;;;;5032550;28;20033;-63
2022/01/22 00:07:17;;;;;;;6.10;1.33;;;20.40;52.10;;;;;;5032296;28;20049;-63
2022/01/22 00:09:50;;;;;;;4.30;1.38;;;20.40;52.10;;;;;;5032551;28;20084;-63
2022/01/22 00:12:28;;;;;;;2.42;1.02;;;20.40;52.10;;;;;;5033335;28;20056;-63
2022/01/22 00:14:53;;;;;;;4.43;1.40;;;20.40;52.00;;;;;;5033323;28;20041;-63
2022/01/22 00:17:19;;;;;;;4.13;1.63;;;20.40;52.10;;;;;;5032444;28;20041;-63
2022/01/22 00:19:44;;;;;;;4.82;1.42;;;20.40;52.10;;;;;;5032945;28;20401;-63
2022/01/22 00:22:10;;;;;;;4.05;1.30;;;20.40;52.80;;;;;;5032937;28;20037;-63
2022/01/22 00:24:38;;;;;;;5.38;1.75;;;20.40;52.10;;;;;;5032088;28;20053;-63
2022/01/22 00:27:04;;;;;;;4.85;1.75;;;20.40;52.10;;;;;;5033255;28;20049;-63
2022/01/22 00:29:30;;;;;;;3.17;1.35;;;20.40;52.10;;;;;;5032420;28;20041;-63
2022/01/22 00:31:55;;;;;;;5.20;1.55;;;20.30;52.10;;;;;;5032395;28;20106;-63
2022/01/22 00:34:21;;;;;;;3.83;1.10;;;20.30;52.00;;;;;;5032528;28;20076;-63
2022/01/22 00:36:46;;;;;;;4.22;1.30;;;20.30;52.00;;;;;;5033186;28;20045;-63
2022/01/22 00:39:12;;;;;;;6.65;1.50;;;20.30;52.10;;;;;;5031892;28;20045;-63
2022/01/22 00:41:37;;;;;;;4.15;1.50;;;20.30;52.10;;;;;;5032749;28;20041;-63
2022/01/22 00:44:03;;;;;;;3.38;1.27;;;20.30;52.10;;;;;;5030289;28;20064;-63
2022/01/22 00:46:29;;;;;;;5.50;1.35;;;20.30;52.10;;;;;;5012153;28;20038;-63
2022/01/22 00:48:54;;;;;;;3.47;1.40;;;20.30;52.10;;;;;;5029389;28;20088;-63
2022/01/22 00:51:20;;;;;;;3.85;1.30;;;20.20;52.00;;;;;;5032610;28;20041;-63
2022/01/22 00:53:45;;;;;;;5.32;1.60;;;20.20;52.00;;;;;;5032076;28;20042;-63
2022/01/22 00:56:11;;;;;;;4.22;1.50;;;20.20;52.00;;;;;;5032936;28;20076;-63
2022/01/22 00:58:37;;;;;;;3.67;1.42;;;20.20;52.00;;;;;;5031499;28;20439;-63
2022/01/22 01:01:02;;;;;;;5.20;1.52;;;20.20;52.00;;;;;;5031750;28;20079;-63
2022/01/22 01:03:32;;;;;;;4.68;1.50;;;20.20;52.00;;;;;;5032278;28;20042;-63
2022/01/22 01:05:57;;;;;;;4.82;1.50;;;20.20;52.00;;;;;;5031871;28;20064;-63
2022/01/22 01:08:23;;;;;;;4.20;1.42;;;20.10;52.00;;;;;;5032127;28;20496;-63
2022/01/22 01:10:49;;;;;;;5.20;1.38;;;20.10;52.00;;;;;;5032597;28;20056;-63
2022/01/22 01:13:15;;;;;;;5.00;1.38;;;20.10;52.00;;;;;;5031650;28;20046;-63
2022/01/22 01:15:54;;;;;;;4.38;1.45;;;20.10;52.00;;;;;;5032697;28;20458;-63
2022/01/22 01:32:16;;;;;;;3.83;1.15;;;20.00;52.00;;;;;;5036362;28;20054;-63
2022/01/22 01:34:44;;;;;;;3.67;1.20;;;20.00;52.00;;;;;;5035830;28;20041;-63
2022/01/22 01:37:12;;;;;;;3.77;1.23;;;20.00;52.00;;;;;;5036561;28;20063;-63
2022/01/22 01:39:39;;;;;;;2.83;1.10;;;20.00;52.00;;;;;;5036249;28;20128;-63
2022/01/22 01:42:09;;;;;;;3.45;1.08;;;20.00;52.00;;;;;;5035311;28;20056;-63
2022/01/22 01:44:35;;;;;;;3.78;1.17;;;20.00;52.10;;;;;;5036121;28;20061;-63
2022/01/22 01:47:03;;;;;;;3.88;0.95;;;20.00;52.00;;;;;;5036076;28;20045;-63
2022/01/22 01:49:28;;;;;;;3.55;1.02;;;20.00;52.00;;;;;;5034906;28;20052;-63
2022/01/22 01:51:56;;;;;;;4.00;1.20;;;20.00;52.10;;;;;;5036097;28;20050;-63
2022/01/22 01:54:35;;;;;;;3.35;1.20;;;20.00;52.10;;;;;;5035741;28;20148;-63
2022/01/22 01:59:46;;;;;;;3.13;0.90;;;20.00;52.00;;;;;;5035694;28;20049;-63
2022/01/22 02:02:12;;;;;;;4.13;1.50;;;20.00;52.10;;;;;;5034935;28;20057;-63
2022/01/22 02:04:38;;;;;;;3.22;1.08;;;20.00;52.00;;;;;;5035584;28;20405;-63
2022/01/22 02:07:04;;;;;;;4.55;1.02;;;20.00;52.10;;;;;;5035815;28;20042;-63
2022/01/22 02:09:29;;;;;;;3.10;1.10;;;19.90;52.00;;;;;;5014438;28;20074;-63
2022/01/22 02:12:07;;;;;;;3.80;1.30;;;19.90;52.00;;;;;;5015642;28;20046;-63
2022/01/22 02:25:21;;;;;;;4.15;1.05;;;19.90;52.80;;;;;;5014466;28;20050;-63
2022/01/22 02:27:46;;;;;;;2.45;0.80;;;19.90;52.10;;;;;;5015826;28;20042;-63
2022/01/22 02:30:19;;;;;;;2.53;0.90;;;19.90;52.00;;;;;;5014535;28;20389;-63
2022/01/22 02:33:02;;;;;;;3.25;0.70;;;19.90;52.00;;;;;;5015692;28;20045;-63
2022/01/22 02:35:33;;;;;;;2.38;0.77;;;19.90;51.90;;;;;;5015405;28;20046;-63
2022/01/22 02:38:05;;;;;;;3.13;1.00;;;19.90;52.00;;;;;;5014691;28;20050;-63
2022/01/22 02:40:36;;;;;;;3.17;0.90;;;19.90;51.90;;;;;;5014992;28;20054;-63
2022/01/22 02:43:01;;;;;;;3.65;1.00;;;19.90;52.00;;;;;;5015370;28;20043;-63
2022/01/22 02:45:27;;;;;;;3.53;0.82;;;19.90;52.00;;;;;;5013956;28;20563;-63
2022/01/22 02:47:53;;;;;;;3.03;1.10;;;19.90;52.00;;;;;;5014699;28;20470;-63
2022/01/22 02:50:19;;;;;;;3.10;0.82;;;19.90;52.00;;;;;;5014791;28;20081;-63
2022/01/22 02:52:45;;;;;;;2.75;0.68;;;19.90;51.90;;;;;;5014633;28;20066;-63
2022/01/22 02:55:12;;;;;;;1.33;0.60;;;19.90;51.90;;;;;;5014719;28;20517;-63
2022/01/22 02:57:41;;;;;;;2.25;0.88;;;19.90;51.90;;;;;;5015176;28;20125;-63
2022/01/22 03:00:07;;;;;;;3.00;0.70;;;20.00;51.90;;;;;;5014221;28;20510;-63
2022/01/22 03:02:33;;;;;;;4.07;0.95;;;19.90;51.80;;;;;;5014328;28;20124;-63
2022/01/22 03:05:00;;;;;;;2.95;0.70;;;19.90;51.80;;;;;;5014657;28;20125;-63
2022/01/22 03:07:25;;;;;;;2.67;0.63;;;20.00;51.90;;;;;;5013688;28;20073;-63
2022/01/22 03:09:53;;;;;;;1.67;0.60;;;20.00;52.00;;;;;;5014472;28;20057;-63
2022/01/22 03:17:59;;;;;;;1.60;0.65;;;20.00;51.90;;;;;;5034715;28;20053;-63
2022/01/22 03:23:10;;;;;;;3.08;0.82;;;20.00;51.90;;;;;;5034091;28;20045;-63
2022/01/22 03:28:23;;;;;;;1.77;0.77;;;20.10;51.90;;;;;;5033241;28;20046;-63
2022/01/22 03:30:49;;;;;;;1.63;0.60;;;20.10;51.90;;;;;;5033835;28;20611;-63
2022/01/22 03:33:19;;;;;;;1.33;0.40;;;20.10;51.90;;;;;;5034002;28;20125;-63
2022/01/22 03:35:50;;;;;;;3.40;0.63;;;20.00;51.90;;;;;;5032766;28;20037;-63
2022/01/22 03:38:15;;;;;;;1.67;0.50;;;20.00;51.80;;;;;;5016171;28;20056;-63
2022/01/22 03:40:41;;;;;;;2.42;0.50;;;20.00;51.80;;;;;;5032564;28;20123;-63
2022/01/22 03:43:06;;;;;;;1.95;0.60;;;20.10;51.90;;;;;;5032513;28;20100;-63
2022/01/22 03:45:32;;;;;;;1.90;0.70;;;20.10;51.90;;;;;;5006988;28;20054;-63
2022/01/22 03:47:57;;;;;;;2.05;0.70;;;20.10;51.90;;;;;;5013484;28;20448;-63
2022/01/22 03:50:23;;;;;;;2.53;0.60;;;20.10;51.90;;;;;;5013623;28;20085;-63
2022/01/22 03:52:48;;;;;;;2.53;0.50;;;20.10;51.90;;;;;;5014091;28;20044;-63
2022/01/22 03:55:29;;;;;;;1.58;0.43;;;20.10;51.90;;;;;;5012998;28;20050;-63
2022/01/22 03:57:55;;;;;;;1.42;0.60;;;20.10;51.80;;;;;;5014129;28;20041;-63
2022/01/22 04:00:20;;;;;;;1.67;0.50;;;20.10;51.80;;;;;;5013097;28;20077;-63
2022/01/22 04:03:24;;;;;;;1.60;0.38;;;20.10;51.80;;;;;;5012813;28;20104;-63
2022/01/22 04:05:48;;;;;;;2.58;0.70;;;20.10;51.80;;;;;;4995934;28;20100;-63
2022/01/22 04:08:17;;;;;;;1.88;0.60;;;20.10;51.70;;;;;;5013559;28;20129;-63
2022/01/22 04:10:43;;;;;;;1.50;0.43;;;20.10;51.70;;;;;;5012779;28;20489;-63
2022/01/22 04:13:13;;;;;;;2.83;0.68;;;20.20;51.80;;;;;;5013568;28;20042;-63
2022/01/22 04:15:40;;;;;;;2.00;0.50;;;20.10;51.80;;;;;;5013844;28;20073;-63
2022/01/22 04:26:52;;;;;;;1.35;0.43;;;20.10;51.70;;;;;;5013197;28;20046;-63
2022/01/22 04:29:04;;;;;;;1.95;0.55;;;20.10;51.70;;;;;;5012654;28;20108;-63
2022/01/22 04:31:30;;;;;;;1.90;0.50;;;20.20;51.80;;;;;;5012111;28;20041;-62
2022/01/22 04:33:55;;;;;;;2.85;0.68;;;20.20;51.80;;;;;;5013459;28;20057;-63
2022/01/22 04:36:21;;;;;;;1.55;0.55;;;20.20;51.80;;;;;;5012598;28;20053;-62
2022/01/22 04:38:47;;;;;;;0.93;0.30;;;20.20;51.80;;;;;;5012316;28;20132;-63
2022/01/22 04:41:12;;;;;;;1.83;0.68;;;20.20;51.80;;;;;;4995077;28;20119;-63
2022/01/22 04:43:40;;;;;;;0.93;0.30;;;20.20;51.80;;;;;;5013216;28;20555;-63
2022/01/22 04:46:14;;;;;;;1.80;0.43;;;20.20;51.80;;;;;;5012484;28;20049;-62
2022/01/22 04:48:52;;;;;;;0.73;0.30;;;20.20;51.80;;;;;;5013218;28;20049;-63
2022/01/22 04:56:46;;;;;;;1.33;0.40;;;20.20;51.80;;;;;;5012984;28;20049;-63
2022/01/22 04:59:12;;;;;;;1.08;0.40;;;20.20;51.70;;;;;;5011868;28;20046;-63
2022/01/22 05:01:38;;;;;;;1.05;0.40;;;20.20;51.70;;;;;;5021969;28;20094;-63
2022/01/22 05:04:04;;;;;;;0.98;0.30;;;20.20;51.70;;;;;;5020834;28;20041;-63
2022/01/22 05:06:30;;;;;;;1.05;0.40;;;20.20;51.70;;;;;;5017171;28;20121;-63
2022/01/22 05:08:56;;;;;;;1.33;0.43;;;20.20;51.80;;;;;;5012965;28;20142;-63
2022/01/22 05:11:24;;;;;;;1.42;0.30;;;20.20;51.70;;;;;;5012551;28;20061;-63
2022/01/22 05:13:49;;;;;;;1.40;0.35;;;20.20;51.70;;;;;;5011599;28;20513;-63
2022/01/22 05:16:15;;;;;;;1.10;0.43;;;20.30;51.80;;;;;;5012634;28;20126;-63
2022/01/22 05:19:48;;;;;;;1.15;0.40;;;20.20;51.70;;;;;;5012697;28;20042;-63
2022/01/22 05:21:38;;;;;;;1.73;0.50;;;20.30;51.70;;;;;;5010060;28;20124;-63
2022/01/22 05:24:08;;;;;;;1.07;0.33;;;20.20;51.70;;;;;;5032261;28;20092;-62
2022/01/22 05:29:23;;;;;;;1.63;0.20;;;20.20;51.70;;;;;;5032552;28;20053;-63
2022/01/22 05:37:03;;;;;;;0.47;0.20;;;20.30;51.70;;;;;;5032591;28;20056;-63
2022/01/22 05:39:29;;;;;;;0.63;0.32;;;20.30;51.80;;;;;;5031772;28;20045;-63
2022/01/22 05:41:56;;;;;;;1.17;0.40;;;20.30;51.70;;;;;;5031593;28;20061;-63
2022/01/22 05:44:21;;;;;;;0.98;0.28;;;20.30;51.70;;;;;;5032106;28;20041;-63
2022/01/22 05:46:48;;;;;;;0.90;0.30;;;20.30;51.70;;;;;;5032354;28;20088;-63
2022/01/22 05:49:13;;;;;;;1.17;0.30;;;20.30;51.70;;;;;;5030498;28;20045;-62
2022/01/22 05:51:41;;;;;;;1.15;0.40;;;20.30;51.70;;;;;;5032376;28;20106;-62
2022/01/22 05:54:46;;;;;;;1.50;0.30;;;20.30;51.70;;;;;;5032029;28;20102;-63
2022/01/22 05:59:48;;;;;;;1.33;0.30;;;20.30;51.70;;;;;;5031898;28;20061;-63
2022/01/22 06:02:17;;;;;;;1.45;0.20;;;20.30;51.70;;;;;;5031171;28;20045;-63
2022/01/22 06:04:43;;;;;;;1.52;0.30;;;20.30;51.70;;;;;;5017748;28;20095;-63
2022/01/22 06:07:09;;;;;;;1.20;0.30;;;20.30;51.60;;;;;;5023784;28;20053;-63
2022/01/22 06:09:37;;;;;;;0.93;0.20;;;20.30;51.70;;;;;;5033420;28;20041;-63
2022/01/22 06:14:34;;;;;;;1.17;0.30;;;20.30;51.70;;;;;;5035424;28;20049;-63
2022/01/22 06:17:00;;;;;;;0.82;0.25;;;20.30;51.70;;;;;;5034739;28;20053;-63
2022/01/22 06:19:26;;;;;;;1.27;0.25;;;20.30;51.70;;;;;;5035282;28;20054;-63
2022/01/22 06:21:51;;;;;;;1.55;0.20;;;20.30;51.70;;;;;;5018559;28;20050;-63
2022/01/22 06:24:21;;;;;;;0.90;0.20;;;20.30;51.70;;;;;;5014283;28;20045;-62
2022/01/22 06:26:46;;;;;;;0.77;0.20;;;20.30;51.60;;;;;;5015388;28;20057;-62
2022/01/22 06:29:12;;;;;;;1.02;0.20;;;20.30;51.70;;;;;;5015456;28;20046;-62
2022/01/22 06:31:37;;;;;;;0.82;0.20;;;20.40;51.70;;;;;;5014828;28;20137;-62
2022/01/22 06:34:04;;;;;;;1.17;0.20;;;20.30;51.60;;;;;;5015560;28;20466;-63
2022/01/22 06:36:29;;;;;;;0.85;0.22;;;20.40;51.70;;;;;;5014446;28;20044;-63
2022/01/22 06:39:10;;;;;;;0.80;0.30;;;20.30;51.70;;;;;;5015520;28;20121;-63
2022/01/22 06:41:45;;;;;;;0.43;0.20;;;20.30;51.70;;;;;;5014869;28;20490;-62
2022/01/22 06:44:14;;;;;;;1.33;0.20;;;20.40;51.70;;;;;;5014428;28;20046;-63
2022/01/22 06:46:40;;;;;;;0.77;0.30;;;20.40;51.70;;;;;;5015283;28;20042;-63
2022/01/22 06:49:06;;;;;;;0.30;0.20;;;20.40;51.70;;;;;;5015405;28;20096;-62
2022/01/22 06:51:33;;;;;;;0.65;0.20;;;20.40;51.70;;;;;;5014009;28;20054;-63
2022/01/22 06:53:58;;;;;;;1.67;0.10;;;20.40;51.70;;;;;;5015154;28;20045;-62
2022/01/22 06:56:25;;;;;;;1.30;0.30;;;20.40;51.70;;;;;;5014659;28;20401;-62
2022/01/22 06:58:50;;;;;;;0.70;0.20;;;20.40;51.70;;;;;;5013992;28;20117;-63
2022/01/22 07:01:16;;;;;;;0.57;0.20;;;20.40;51.70;;;;;;5013897;28;20138;-62
2022/01/22 07:03:41;;;;;;;0.77;0.35;;;20.40;51.70;;;;;;4997452;28;20128;-62
2022/01/22 07:06:08;;;;;;;0.93;0.20;;;20.40;51.70;;;;;;5026761;28;20455;-63
2022/01/22 07:08:33;;;;;;;0.80;0.20;;;20.40;51.70;;;;;;5033960;28;20477;-63
2022/01/22 07:10:59;;;;;;;0.57;0.13;;;20.40;51.70;;;;;;5034281;28;20089;-63
2022/01/22 07:13:24;;;;;;;0.52;0.10;;;20.40;51.60;;;;;;5033321;28;20099;-62
2022/01/22 07:15:50;;;;;;;0.30;0.20;;;20.50;51.70;;;;;;5034453;28;20116;-63
2022/01/22 07:18:15;;;;;;;0.38;0.10;;;20.40;51.60;;;;;;5033999;28;20042;-63
2022/01/22 07:20:42;;;;;;;1.35;0.20;;;20.50;51.70;;;;;;5033787;28;20053;-64
2022/01/22 07:23:43;;;;;;;0.50;0.22;;;20.50;51.70;;;;;;5019733;28;20474;-63
2022/01/22 07:26:06;;;;;;;1.00;0.20;;;20.50;51.70;;;;;;5029182;28;20184;-63
2022/01/22 07:28:32;;;;;;;0.20;0.10;;;20.50;51.70;;;;;;5034037;28;20049;-63
2022/01/22 07:30:59;;;;;;;2.50;0.28;;;20.50;51.60;;;;;;5033502;28;20053;-63
2022/01/22 07:33:25;;;;;;;1.60;0.13;;;20.50;51.70;;;;;;5023872;28;20046;-64
2022/01/22 07:35:52;;;;;;;1.20;0.20;;;20.50;51.60;;;;;;5014233;28;20073;-63
2022/01/22 07:38:18;;;;;;;2.72;0.22;;;20.50;52.40;;;;;;5013294;28;20068;-63
2022/01/22 07:40:43;;;;;;;0.88;0.30;;;20.50;51.70;;;;;;5016737;28;20045;-63
2022/01/22 07:43:09;;;;;;;1.48;0.30;;;20.50;51.70;;;;;;5034120;28;20049;-63
2022/01/22 07:45:34;;;;;;;1.00;0.30;;;20.50;51.70;;;;;;5033572;28;20048;-63
2022/01/22 07:48:00;;;;;;;4.47;0.25;;;20.50;51.80;;;;;;5033067;28;20049;-63
2022/01/22 07:50:25;;;;;;;1.33;0.17;;;20.50;51.80;;;;;;5033562;28;20049;-63
2022/01/22 07:52:51;;;;;;;1.30;0.10;;;20.50;51.80;;;;;;5033808;28;20044;-63
2022/01/22 07:55:19;;;;;;;1.48;0.28;;;20.50;51.80;;;;;;5032743;28;20096;-63
2022/01/22 07:57:44;;;;;;;0.73;0.20;;;20.50;51.80;;;;;;5032244;28;20449;-63
2022/01/22 08:00:11;;;;;;;1.75;0.10;;;20.50;51.80;;;;;;5015494;28;20100;-63
2022/01/22 08:02:37;;;;;;;0.90;0.20;;;20.50;51.80;;;;;;5012621;28;20406;-63
2022/01/22 08:05:02;;;;;;;3.95;0.20;;;20.60;52.00;;;;;;5013679;28;20497;-63
2022/01/22 08:07:28;;;;;;;1.98;0.20;;;20.60;52.20;;;;;;5019235;28;20041;-63
2022/01/22 08:09:54;;;;;;;1.75;0.30;;;20.60;52.30;;;;;;5032652;28;20045;-63
2022/01/22 08:12:19;;;;;;;2.72;0.25;;;20.60;52.40;;;;;;5027538;28;20048;-63
2022/01/22 08:14:45;;;;;;;1.02;0.15;;;20.60;52.40;;;;;;5013101;28;20041;-62
2022/01/22 08:17:10;;;;;;;1.48;0.20;;;20.60;53.30;;;;;;5016127;28;20528;-63
2022/01/22 08:19:36;;;;;;;2.05;0.32;;;20.60;52.60;;;;;;5033112;28;20033;-63
2022/01/22 08:22:02;;;;;;;1.50;0.20;;;20.60;52.70;;;;;;5032646;28;20049;-63
2022/01/22 08:24:28;;;;;;;1.85;0.10;;;20.60;52.70;;;;;;5033017;28;20175;-63
2022/01/22 08:27:10;;;;;;;1.63;0.20;;;20.60;52.80;;;;;;5033314;28;20041;-66
2022/01/22 08:29:36;;;;;;;2.88;0.20;;;20.60;52.80;;;;;;5031604;28;20050;-64
2022/01/22 08:32:32;;;;;;;2.38;0.30;;;20.60;52.70;;;;;;5033244;28;20048;-62
2022/01/22 08:37:40;;;;;;;1.30;0.28;;;20.70;52.90;;;;;;5032387;28;20124;-64
2022/01/22 08:40:06;;;;;;;3.78;0.20;;;20.70;52.90;;;;;;5032929;28;20461;-64
2022/01/22 08:42:32;;;;;;;0.38;0.10;;;20.70;53.00;;;;;;5032521;28;20047;-63
2022/01/22 08:44:57;;;;;;;0.77;0.20;;;20.70;53.10;;;;;;5031991;28;20038;-63
2022/01/22 08:47:23;;;;;;;2.72;0.30;;;20.70;53.10;;;;;;5032900;28;20045;-64
2022/01/22 08:49:48;;;;;;;1.55;0.20;;;20.70;53.10;;;;;;5032906;28;20045;-63
2022/01/22 08:52:16;;;;;;;5.25;0.38;;;20.70;53.20;;;;;;5031566;28;20045;-63
2022/01/22 08:54:42;;;;;;;1.00;0.30;;;20.70;53.20;;;;;;5032807;28;20045;-63
2022/01/22 08:57:08;;;;;;;1.00;0.20;;;20.80;53.30;;;;;;5032188;28;20038;-63
2022/01/22 08:59:33;;;;;;;1.83;0.20;;;20.80;53.40;;;;;;5031903;28;20049;-62
2022/01/22 09:01:59;;;;;;;1.73;0.20;;;20.80;53.40;;;;;;5032874;28;20080;-62
2022/01/22 09:04:24;;;;;;;3.40;0.30;;;20.80;53.50;;;;;;5031751;28;20373;-63
2022/01/22 09:06:50;;;;;;;2.88;0.28;;;20.80;54.20;;;;;;5031259;28;20468;-63
2022/01/22 09:09:15;;;;;;;1.50;0.20;;;20.80;53.60;;;;;;5032422;28;20041;-63
2022/01/22 09:11:42;;;;;;;1.38;0.30;;;20.80;53.50;;;;;;5031714;28;20052;-64
2022/01/22 09:14:09;;;;;;;2.20;0.30;;;20.80;53.50;;;;;;5032437;28;20530;-64
2022/01/22 09:16:35;;;;;;;1.08;0.30;;;20.80;53.40;;;;;;5032482;28;20068;-63
2022/01/22 09:19:06;;;;;;;1.23;0.38;;;20.80;53.30;;;;;;5032031;28;20464;-63
2022/01/22 09:21:36;;;;;;;1.52;0.32;;;20.80;53.40;;;;;;5032479;28;20156;-63
2022/01/22 09:24:01;;;;;;;0.60;0.20;;;20.90;53.40;;;;;;5032479;28;20076;-63
2022/01/22 09:26:28;;;;;;;2.42;0.32;;;20.90;53.40;;;;;;5030135;28;20069;-62
2022/01/22 09:28:56;;;;;;;2.08;0.40;;;20.90;53.50;;;;;;5031931;28;20405;-62
2022/01/22 09:31:21;;;;;;;2.63;0.40;;;20.90;53.50;;;;;;5012521;28;20056;-62
2022/01/22 09:33:47;;;;;;;0.82;0.30;;;20.90;53.50;;;;;;5022910;28;20045;-63
2022/01/22 09:36:12;;;;;;;4.68;0.30;;;20.90;53.60;;;;;;5031533;28;20049;-62
2022/01/22 09:38:38;;;;;;;2.75;0.30;;;20.90;53.60;;;;;;5032524;28;20049;-62
2022/01/22 09:41:05;;;;;;;2.38;0.30;;;20.90;53.70;;;;;;5035516;28;20045;-64
2022/01/22 09:43:31;;;;;;;1.33;0.20;;;20.90;54.50;;;;;;5018426;28;20037;-62
2022/01/22 09:45:57;;;;;;;2.05;0.40;;;20.90;53.80;;;;;;5024386;28;20054;-62
2022/01/22 09:48:23;;;;;;;1.92;0.30;;;21.00;53.90;;;;;;5025677;28;20049;-63
2022/01/22 09:50:48;;;;;;;2.25;0.38;;;21.00;53.90;;;;;;5036078;28;20045;-62
2022/01/22 09:53:14;;;;;;;1.17;0.30;;;21.00;54.60;;;;;;5035779;28;20041;-64
2022/01/22 09:55:39;;;;;;;1.20;0.20;;;21.00;54.00;;;;;;5032337;28;20041;-62
2022/01/22 09:58:05;;;;;;;0.60;0.30;;;21.00;53.90;;;;;;5021096;28;20046;-62
2022/01/22 10:00:30;;;;;;;2.75;0.47;;;21.00;53.80;;;;;;5027158;28;20053;-62
2022/01/22 10:02:56;;;;;;;1.30;0.30;;;21.00;54.60;;;;;;5015316;28;20062;-63
2022/01/22 10:05:38;;;;;;;1.08;0.30;;;21.00;54.00;;;;;;5014699;28;20084;-63
2022/01/22 10:08:30;;;;;;;0.65;0.22;;;21.00;54.10;;;;;;5016967;28;20046;-63
2022/01/22 10:10:57;;;;;;;0.98;0.20;;;21.00;54.10;;;;;;5015782;28;20038;-63
2022/01/22 10:13:50;;;;;;;0.40;0.20;;;21.00;54.00;;;;;;5014398;28;20050;-63
2022/01/22 10:16:24;;;;;;;2.10;0.28;;;21.00;54.00;;;;;;5017071;28;20038;-64
2022/01/22 10:19:15;;;;;;;2.00;0.30;;;21.00;53.90;;;;;;5034670;28;20083;-63
2022/01/22 10:21:47;;;;;;;2.47;0.40;;;21.00;54.10;;;;;;5033522;28;20049;-62
2022/01/22 10:27:34;;;;;;;0.85;0.25;;;21.10;54.20;;;;;;5020246;28;20054;-62
2022/01/22 10:30:10;;;;;;;1.45;0.20;;;21.10;54.30;;;;;;4998444;28;20053;-62
2022/01/22 10:32:45;;;;;;;1.05;0.30;;;21.10;54.40;;;;;;5018505;28;20041;-62
2022/01/22 10:35:25;;;;;;;2.63;0.50;;;21.10;54.30;;;;;;5034677;28;20473;-62
2022/01/22 10:37:54;;;;;;;2.22;0.30;;;21.10;54.20;;;;;;5034394;28;20071;-63
2022/01/22 10:40:34;;;;;;;0.50;0.20;;;21.10;54.10;;;;;;5034314;28;20065;-63
2022/01/22 10:43:33;;;;;;;1.05;0.30;;;21.10;54.30;;;;;;5034065;28;20428;-63
2022/01/22 10:46:08;;;;;;;0.75;0.20;;;21.10;54.40;;;;;;5034902;28;20386;-63
2022/01/22 10:48:38;;;;;;;3.03;0.30;;;21.10;54.40;;;;;;5034847;28;20045;-64
2022/01/22 10:51:12;;;;;;;1.02;0.30;;;21.10;54.40;;;;;;5033490;28;20049;-64
2022/01/22 10:53:40;;;;;;;0.43;0.20;;;21.10;54.50;;;;;;5035158;28;20050;-65
2022/01/22 10:56:06;;;;;;;2.03;0.40;;;21.10;54.50;;;;;;5034900;28;20072;-63
2022/01/22 10:58:32;;;;;;;1.85;0.43;;;21.20;54.50;;;;;;5033463;28;20049;-63
2022/01/22 11:01:05;;;;;;;0.82;0.30;;;21.20;54.50;;;;;;5034676;28;20049;-65
2022/01/22 11:03:31;;;;;;;0.65;0.30;;;21.20;54.50;;;;;;5025184;28;20565;-62
2022/01/22 11:05:57;;;;;;;2.08;0.40;;;21.20;54.50;;;;;;5022423;28;20125;-63
2022/01/22 11:08:23;;;;;;;1.10;0.30;;;21.20;54.50;;;;;;5024269;28;20481;-63
2022/01/22 11:10:49;;;;;;;1.15;0.32;;;21.20;54.50;;;;;;5021351;28;20091;-63
2022/01/22 11:13:15;;;;;;;1.58;0.30;;;21.20;54.50;;;;;;5024819;28;20104;-63
2022/01/22 11:15:41;;;;;;;0.68;0.40;;;21.20;54.50;;;;;;5023381;28;20034;-64
2022/01/22 11:18:07;;;;;;;0.95;0.30;;;21.30;55.30;;;;;;5022831;28;20849;-63
2022/01/22 11:20:32;;;;;;;1.95;0.40;;;21.30;54.60;;;;;;4981612;28;20096;-63
2022/01/22 11:22:58;;;;;;;1.27;0.30;;;21.30;54.60;;;;;;4997006;28;20070;-63
2022/01/22 11:25:24;;;;;;;1.02;0.30;;;21.30;54.50;;;;;;5019814;28;20041;-63
2022/01/22 11:27:50;;;;;;;2.55;0.35;;;21.30;54.40;;;;;;5016888;28;20544;-63
2022/01/22 11:30:16;;;;;;;1.08;0.20;;;21.30;54.20;;;;;;5008515;28;20049;-63
2022/01/22 11:32:46;;;;;;;1.77;0.50;;;21.30;54.20;;;;;;5015683;28;20045;-62
2022/01/22 11:35:12;;;;;;;1.85;0.30;;;21.30;54.30;;;;;;5028870;28;20050;-62
2022/01/22 11:37:49;;;;;;;1.70;0.38;;;21.30;54.40;;;;;;4996936;28;20042;-61
2022/01/22 11:40:17;;;;;;;0.95;0.30;;;21.30;54.20;;;;;;5012962;28;20042;-63
2022/01/22 11:43:07;;;;;;;1.10;0.37;;;21.30;54.20;;;;;;5014456;28;20048;-64
2022/01/22 11:45:43;;;;;;;4.40;0.40;;;21.30;54.30;;;;;;5013339;28;20767;-62
2022/01/22 11:48:15;;;;;;;0.85;0.30;;;21.30;54.30;;;;;;4995815;28;20481;-63
2022/01/22 11:50:41;;;;;;;0.50;0.30;;;21.30;54.20;;;;;;5013937;28;20056;-62
2022/01/22 11:53:29;;;;;;;1.30;0.40;;;21.30;54.30;;;;;;5013360;28;20113;-63
2022/01/22 11:56:10;;;;;;;1.40;0.30;;;21.30;54.20;;;;;;5013927;28;20120;-63
2022/01/22 11:59:14;;;;;;;1.25;0.30;;;21.30;54.20;;;;;;5013818;28;20049;-63
2022/01/22 12:01:50;;;;;;;2.45;0.30;;;21.30;54.10;;;;;;5013015;28;20066;-62
2022/01/22 12:04:16;;;;;;;1.33;0.30;;;21.30;54.20;;;;;;5012858;28;20046;-63
2022/01/22 12:07:04;;;;;;;1.98;0.40;;;21.30;54.20;;;;;;5013631;28;20053;-62
2022/01/22 12:15:26;;;;;;;2.70;0.30;;;21.20;54.10;;;;;;4990540;28;20074;-63
2022/01/22 12:18:06;;;;;;;2.67;0.45;;;21.20;54.10;;;;;;4991713;28;20494;-64
2022/01/22 12:23:17;;;;;;;2.20;0.82;;;21.20;54.90;;;;;;5012485;28;20394;-63
2022/01/22 12:25:42;;;;;;;3.83;0.60;;;21.30;54.40;;;;;;5013505;28;20087;-62
2022/01/22 12:28:09;;;;;;;3.28;0.80;;;21.20;54.50;;;;;;5012714;28;20038;-64
2022/01/22 12:30:48;;;;;;;2.05;0.65;;;21.20;54.50;;;;;;5013124;28;20046;-64
2022/01/22 12:33:15;;;;;;;4.07;0.85;;;21.30;54.60;;;;;;5013184;28;20481;-64
2022/01/22 12:35:46;;;;;;;3.87;0.70;;;21.30;54.60;;;;;;5012806;28;20058;-62
2022/01/22 12:41:28;;;;;;;3.70;0.95;;;21.30;54.70;;;;;;5013353;28;20132;-62
2022/01/22 12:44:07;;;;;;;;;;;21.30;54.80;;;;;;5021635;28;20041;-63
2022/01/22 12:46:33;;;;;;;2.00;0.93;;;21.20;54.50;;;;;;5032702;28;19925;-63
2022/01/22 12:48:59;;;;;;;4.18;1.13;;;21.20;54.70;;;;;;5033003;28;20069;-62
2022/01/22 12:51:26;;;;;;;2.72;0.90;;;21.20;54.70;;;;;;5014465;28;20041;-62
2022/01/22 12:53:51;;;;;;;3.65;1.10;;;21.30;54.90;;;;;;5032726;28;20049;-63
2022/01/22 12:56:49;;;;;;;4.65;0.93;;;21.20;54.80;;;;;;5031880;28;20053;-64
2022/01/22 12:59:10;;;;;;;1.50;0.63;;;21.30;54.90;;;;;;5032421;28;20073;-62
2022/01/22 13:01:37;;;;;;;2.60;0.82;;;21.30;55.00;;;;;;5032004;28;20088;-62
2022/01/22 13:04:05;;;;;;;2.25;0.80;;;21.30;55.00;;;;;;5031942;28;20041;-62
2022/01/22 13:06:46;;;;;;;3.17;1.00;;;21.30;55.00;;;;;;5031623;28;20900;-61
2022/01/22 13:09:13;;;;;;;1.58;0.80;;;21.30;55.70;;;;;;5014258;28;20478;-61
2022/01/22 13:11:46;;;;;;;3.53;0.85;;;21.30;55.00;;;;;;5012065;28;20042;-62
2022/01/22 13:14:17;;;;;;;4.80;0.90;;;21.30;54.90;;;;;;5014899;28;20494;-62
2022/01/22 13:16:50;;;;;;;1.85;0.80;;;21.30;54.90;;;;;;5019585;28;20046;-61
2022/01/22 13:19:16;;;;;;;3.75;1.25;;;21.30;54.80;;;;;;5037267;28;20388;-62
2022/01/22 13:21:51;;;;;;;3.60;0.90;;;21.30;54.80;;;;;;5039061;28;20511;-63
2022/01/22 13:24:17;;;;;;;3.08;0.88;;;21.30;54.90;;;;;;5038711;28;20041;-62
2022/01/22 13:26:44;;;;;;;3.80;0.85;;;21.30;55.00;;;;;;5004131;28;20049;-63
2022/01/22 13:29:19;;;;;;;3.22;0.77;;;21.30;55.10;;;;;;5030287;28;20045;-63
2022/01/22 13:32:16;;;;;;;1.40;0.57;;;21.30;55.10;;;;;;5027071;28;20041;-63
2022/01/22 13:35:11;;;;;;;3.40;0.70;;;21.30;55.00;;;;;;5029849;28;20041;-63
2022/01/22 13:38:18;;;;;;;3.15;1.08;;;21.30;55.10;;;;;;5026695;28;20050;-64
2022/01/22 13:49:02;;;;;;;3.05;0.80;;;21.20;55.00;;;;;;5038095;28;20049;-63
2022/01/22 13:51:28;;;;;;;3.45;0.88;;;21.20;55.00;;;;;;5035322;28;20060;-64
2022/01/22 13:53:55;;;;;;;3.40;0.98;;;21.20;55.00;;;;;;5032804;28;20045;-63
2022/01/22 13:56:23;;;;;;;2.60;0.70;;;21.20;54.90;;;;;;5038417;28;20041;-63
2022/01/22 13:58:53;;;;;;;4.10;1.00;;;21.20;54.90;;;;;;5019858;28;20099;-63
2022/01/22 14:01:32;;;;;;;3.38;1.00;;;21.20;54.90;;;;;;5037194;28;20489;-64
2022/01/22 14:04:11;;;;;;;3.13;1.10;;;21.30;55.00;;;;;;5038218;28;20052;-63
2022/01/22 14:06:37;;;;;;;3.03;0.90;;;21.20;55.00;;;;;;5038110;28;20049;-63
2022/01/22 14:09:19;;;;;;;3.10;1.00;;;21.30;55.00;;;;;;5038377;28;20048;-63
2022/01/22 14:12:03;;;;;;;3.53;1.13;;;21.20;55.00;;;;;;5038612;28;20050;-62
2022/01/22 14:14:32;;;;;;;3.80;1.20;;;21.20;54.90;;;;;;5037535;28;20045;-63
2022/01/22 14:17:10;;;;;;;;;;;21.20;54.90;;;;;;5039070;28;20477;-63
2022/01/22 14:19:36;;;;;;;2.58;0.90;;;21.20;54.80;;;;;;5038060;28;19921;-63
2022/01/22 14:22:01;;;;;;;5.30;1.23;;;21.20;54.90;;;;;;5037536;28;20053;-63
2022/01/22 14:24:31;;;;;;;3.88;1.17;;;21.20;54.80;;;;;;5038227;28;20496;-64
2022/01/22 14:26:56;;;;;;;2.45;0.88;;;21.20;54.90;;;;;;5034342;28;20128;-62
2022/01/22 14:29:22;;;;;;;2.72;1.17;;;21.20;54.90;;;;;;5034342;28;20133;-62